createdAt,value
2018-12-09T00:00:55.953Z,2.47
2018-12-09T00:03:24.588Z,3.00
2018-12-09T00:05:53.083Z,2.47
2018-12-09T00:08:21.673Z,1.70
2018-12-09T00:10:50.099Z,2.33
2018-12-09T00:13:18.551Z,1.90
2018-12-09T00:15:47.045Z,2.70
2018-12-09T00:18:15.578Z,1.90
2018-12-09T00:20:44.373Z,3.57
2018-12-09T00:23:12.865Z,2.60
2018-12-09T00:25:41.348Z,2.77
2018-12-09T00:28:09.831Z,3.10
2018-12-09T00:30:38.299Z,2.70
2018-12-09T00:33:06.865Z,3.73
2018-12-09T00:35:35.363Z,3.43
2018-12-09T00:38:04.034Z,3.20
2018-12-09T00:40:32.495Z,3.37
2018-12-09T00:43:01.007Z,3.17
2018-12-09T00:45:29.463Z,3.57
2018-12-09T00:47:57.904Z,3.63
2018-12-09T00:50:26.718Z,4.83
2018-12-09T00:52:55.145Z,3.53
2018-12-09T00:55:23.719Z,4.60
2018-12-09T00:57:52.587Z,3.40
2018-12-09T01:00:21.275Z,7.10
2018-12-09T01:02:49.992Z,4.77
2018-12-09T01:05:18.440Z,3.97
2018-12-09T01:07:46.879Z,5.30
2018-12-09T01:10:15.272Z,3.57
2018-12-09T01:12:43.699Z,5.17
2018-12-09T01:15:12.191Z,4.23
2018-12-09T01:17:41.023Z,6.53
2018-12-09T01:20:10.012Z,4.57
2018-12-09T01:22:38.439Z,6.27
2018-12-09T01:25:06.851Z,6.37
2018-12-09T01:27:35.697Z,5.40
2018-12-09T01:30:05.050Z,5.10
2018-12-09T01:32:33.783Z,6.60
2018-12-09T01:35:02.185Z,6.50
2018-12-09T01:37:30.728Z,5.60
2018-12-09T01:39:59.164Z,5.17
2018-12-09T01:42:27.596Z,7.90
2018-12-09T01:44:55.995Z,6.13
2018-12-09T01:47:24.412Z,6.60
2018-12-09T01:49:53.547Z,5.20
2018-12-09T01:52:21.995Z,5.13
2018-12-09T01:54:50.410Z,4.50
2018-12-09T01:57:18.828Z,5.63
2018-12-09T01:59:47.357Z,4.27
2018-12-09T02:02:15.771Z,5.30
2018-12-09T02:04:44.211Z,5.50
2018-12-09T02:07:12.669Z,4.53
2018-12-09T02:09:41.099Z,5.40
2018-12-09T02:12:09.527Z,4.30
2018-12-09T02:14:37.939Z,4.93
2018-12-09T02:17:06.367Z,3.90
2018-12-09T02:19:34.867Z,3.93
2018-12-09T02:22:03.398Z,4.47
2018-12-09T02:24:32.093Z,4.83
2018-12-09T02:27:00.552Z,5.03
2018-12-09T02:29:28.950Z,3.63
2018-12-09T02:31:57.440Z,4.20
2018-12-09T02:34:25.841Z,5.23
2018-12-09T02:36:54.360Z,3.80
2018-12-09T02:39:22.807Z,4.10
2018-12-09T02:41:51.309Z,5.33
2018-12-09T02:44:19.751Z,4.17
2018-12-09T02:46:48.154Z,4.17
2018-12-09T02:49:16.552Z,4.33
2018-12-09T02:51:45.085Z,4.70
2018-12-09T02:54:13.500Z,3.97
2018-12-09T02:56:41.978Z,6.30
2018-12-09T02:59:10.549Z,3.73
2018-12-09T03:01:38.946Z,4.10
2018-12-09T03:04:07.403Z,3.83
2018-12-09T03:06:35.832Z,5.07
2018-12-09T03:09:07.046Z,4.33
2018-12-09T03:11:35.451Z,4.30
2018-12-09T03:14:03.900Z,4.40
2018-12-09T03:16:32.324Z,3.77
2018-12-09T03:19:00.784Z,3.63
2018-12-09T03:21:29.304Z,3.90
2018-12-09T03:23:57.699Z,4.20
2018-12-09T03:26:26.097Z,4.30
2018-12-09T03:28:54.513Z,4.50
2018-12-09T03:31:23.446Z,4.23
2018-12-09T03:33:51.858Z,3.73
2018-12-09T03:36:20.361Z,4.07
2018-12-09T03:38:48.853Z,4.10
2018-12-09T03:41:17.623Z,4.63
2018-12-09T03:43:46.042Z,5.57
2018-12-09T03:46:14.440Z,5.33
2018-12-09T03:48:42.897Z,4.90
2018-12-09T03:51:11.307Z,5.13
2018-12-09T03:53:39.702Z,5.67
2018-12-09T03:56:08.119Z,4.27
2018-12-09T03:58:36.568Z,4.13
2018-12-09T04:01:05.032Z,4.97
2018-12-09T04:03:33.526Z,4.50
2018-12-09T04:06:02.094Z,3.47
2018-12-09T04:08:30.518Z,2.80
2018-12-09T04:10:58.910Z,2.70
2018-12-09T04:13:27.323Z,2.10
2018-12-09T04:15:56.091Z,1.30
2018-12-09T04:18:24.502Z,1.83
2018-12-09T04:20:53.039Z,2.00
2018-12-09T04:23:21.491Z,1.70
2018-12-09T04:25:50.045Z,1.70
2018-12-09T04:28:18.476Z,1.77
2018-12-09T04:30:46.871Z,2.30
2018-12-09T04:33:15.399Z,1.30
2018-12-09T04:35:43.820Z,1.70
2018-12-09T04:38:12.312Z,1.90
2018-12-09T04:40:40.707Z,2.90
2018-12-09T04:43:09.120Z,2.23
2018-12-09T04:45:37.728Z,1.93
2018-12-09T04:48:06.160Z,1.73
2018-12-09T04:50:35.051Z,3.10
2018-12-09T04:53:03.475Z,2.20
2018-12-09T04:55:31.875Z,3.40
2018-12-09T04:58:00.322Z,2.83
2018-12-09T05:00:40.074Z,2.80
2018-12-09T05:03:08.511Z,2.70
2018-12-09T05:05:36.916Z,3.23
2018-12-09T05:08:05.353Z,3.40
2018-12-09T05:10:33.855Z,2.90
2018-12-09T05:13:02.319Z,3.57
2018-12-09T05:15:30.720Z,3.53
2018-12-09T05:17:59.124Z,4.07
2018-12-09T05:20:27.666Z,5.40
2018-12-09T05:22:56.091Z,4.70
2018-12-09T05:25:24.505Z,4.53
2018-12-09T05:27:52.892Z,4.10
2018-12-09T05:30:22.376Z,4.33
2018-12-09T05:32:50.763Z,4.00
2018-12-09T05:35:19.484Z,4.33
2018-12-09T05:37:47.912Z,4.07
2018-12-09T05:40:16.321Z,2.37
2018-12-09T05:42:44.963Z,3.43
2018-12-09T05:45:13.399Z,4.27
2018-12-09T05:47:42.261Z,2.90
2018-12-09T05:50:10.663Z,2.50
2018-12-09T05:52:39.092Z,2.73
2018-12-09T05:55:08.123Z,3.40
2018-12-09T05:57:36.627Z,3.10
2018-12-09T06:00:06.128Z,2.70
2018-12-09T06:02:46.027Z,3.13
2018-12-09T06:05:14.442Z,3.07
2018-12-09T06:07:42.831Z,4.83
2018-12-09T06:10:11.248Z,3.80
2018-12-09T06:12:39.667Z,3.63
2018-12-09T06:15:08.384Z,3.57
2018-12-09T06:17:36.985Z,5.40
2018-12-09T06:20:05.874Z,3.20
2018-12-09T06:22:34.293Z,2.87
2018-12-09T06:25:02.720Z,4.10
2018-12-09T06:27:31.292Z,6.00
2018-12-09T06:29:59.701Z,4.30
2018-12-09T06:32:28.424Z,4.20
2018-12-09T06:34:56.829Z,4.80
2018-12-09T06:37:25.252Z,4.37
2018-12-09T06:39:53.676Z,4.67
2018-12-09T06:42:22.066Z,4.80
2018-12-09T06:44:50.901Z,3.90
2018-12-09T06:47:19.325Z,5.27
2018-12-09T06:49:47.734Z,3.30
2018-12-09T06:52:16.136Z,3.50
2018-12-09T06:54:44.571Z,3.83
2018-12-09T06:57:13.429Z,4.37
2018-12-09T06:59:41.868Z,4.90
2018-12-09T07:02:10.403Z,3.63
2018-12-09T07:04:38.856Z,2.93
2018-12-09T07:07:07.257Z,4.70
2018-12-09T07:09:36.237Z,3.00
2018-12-09T07:12:04.672Z,2.90
2018-12-09T07:14:33.107Z,3.40
2018-12-09T07:17:01.538Z,3.23
2018-12-09T07:19:29.963Z,2.90
2018-12-09T07:21:58.914Z,4.80
2018-12-09T07:24:27.330Z,3.47
2018-12-09T07:26:56.078Z,3.90
2018-12-09T07:29:24.608Z,3.87
2018-12-09T07:31:53.122Z,3.37
2018-12-09T07:34:21.879Z,3.20
2018-12-09T07:36:50.309Z,4.00
2018-12-09T07:39:18.734Z,3.07
2018-12-09T07:41:47.159Z,3.60
2018-12-09T07:44:15.727Z,3.40
2018-12-09T07:46:44.437Z,3.80
2018-12-09T07:49:12.915Z,4.00
2018-12-09T07:51:41.392Z,4.60
2018-12-09T07:54:09.800Z,3.33
2018-12-09T07:56:38.242Z,3.80
2018-12-09T07:59:09.802Z,3.50
2018-12-09T08:01:38.914Z,4.07
2018-12-09T08:04:07.322Z,3.33
2018-12-09T08:06:35.775Z,4.40
2018-12-09T08:09:05.864Z,2.60
2018-12-09T08:11:34.296Z,3.07
2018-12-09T08:14:02.803Z,2.80
2018-12-09T08:16:31.269Z,3.90
2018-12-09T08:18:59.676Z,4.47
2018-12-09T08:21:28.105Z,3.20
2018-12-09T08:23:56.498Z,3.90
2018-12-09T08:26:24.979Z,3.33
2018-12-09T08:28:53.411Z,3.23
2018-12-09T08:31:21.851Z,3.70
2018-12-09T08:33:50.290Z,3.67
2018-12-09T08:36:19.856Z,3.70
2018-12-09T08:38:49.765Z,4.70
2018-12-09T08:41:18.335Z,3.90
2018-12-09T08:43:46.863Z,4.07
2018-12-09T08:46:15.453Z,3.73
2018-12-09T08:48:43.932Z,4.27
2018-12-09T08:51:12.363Z,3.60
2018-12-09T08:53:41.570Z,4.77
2018-12-09T08:56:10.031Z,4.37
2018-12-09T08:58:38.451Z,3.73
2018-12-09T09:01:08.779Z,4.50
2018-12-09T09:03:37.170Z,4.13
2018-12-09T09:06:05.626Z,4.00
2018-12-09T09:08:34.060Z,3.70
2018-12-09T09:11:02.469Z,3.77
2018-12-09T09:13:30.886Z,2.90
2018-12-09T09:15:59.423Z,4.47
2018-12-09T09:18:27.843Z,3.80
2018-12-09T09:20:56.267Z,3.80
2018-12-09T09:23:24.758Z,4.83
2018-12-09T09:25:53.165Z,2.73
2018-12-09T09:28:21.578Z,4.00
2018-12-09T09:30:50.037Z,3.40
2018-12-09T09:33:18.476Z,2.80
2018-12-09T09:35:46.881Z,4.13
2018-12-09T09:38:15.282Z,3.70
2018-12-09T09:40:43.832Z,3.80
2018-12-09T09:43:12.254Z,3.70
2018-12-09T09:45:40.945Z,3.10
2018-12-09T09:48:09.479Z,3.63
2018-12-09T09:50:37.921Z,3.00
2018-12-09T09:53:06.327Z,4.50
2018-12-09T09:55:34.864Z,5.90
2018-12-09T09:58:03.411Z,3.90
2018-12-09T10:00:31.853Z,3.73
2018-12-09T10:03:00.260Z,3.77
2018-12-09T10:05:28.716Z,3.33
2018-12-09T10:07:57.157Z,3.70
2018-12-09T10:10:25.603Z,3.33
2018-12-09T10:12:54.011Z,2.60
2018-12-09T10:15:22.461Z,3.57
2018-12-09T10:17:50.896Z,4.00
2018-12-09T10:20:19.346Z,3.57
2018-12-09T10:22:47.766Z,3.63
2018-12-09T10:25:16.206Z,4.17
2018-12-09T10:27:44.630Z,3.13
2018-12-09T10:30:13.220Z,3.80
2018-12-09T10:32:41.651Z,3.30
2018-12-09T10:35:10.075Z,3.50
2018-12-09T10:37:38.495Z,4.20
2018-12-09T10:40:07.498Z,4.10
2018-12-09T10:42:35.953Z,3.63
2018-12-09T10:45:05.255Z,4.07
2018-12-09T10:47:33.720Z,4.10
2018-12-09T10:50:02.747Z,3.40
2018-12-09T10:52:31.234Z,3.30
2018-12-09T10:54:59.644Z,3.20
2018-12-09T10:57:28.085Z,3.40
2018-12-09T10:59:56.558Z,3.63
2018-12-09T11:02:24.992Z,2.63
2018-12-09T11:04:53.409Z,3.03
2018-12-09T11:07:21.838Z,2.37
2018-12-09T11:09:50.285Z,2.70
2018-12-09T11:12:18.704Z,3.73
2018-12-09T11:14:47.139Z,2.03
2018-12-09T11:17:15.592Z,2.27
2018-12-09T11:19:44.037Z,2.97
2018-12-09T11:22:12.477Z,2.30
2018-12-09T11:24:41.045Z,2.30
2018-12-09T11:27:09.463Z,2.53
2018-12-09T11:29:37.937Z,2.20
2018-12-09T11:32:06.357Z,2.50
2018-12-09T11:34:34.772Z,1.77
2018-12-09T11:37:03.207Z,1.77
2018-12-09T11:39:31.649Z,1.07
2018-12-09T11:42:00.135Z,1.30
2018-12-09T11:44:28.566Z,1.20
2018-12-09T11:46:56.982Z,1.00
2018-12-09T11:49:25.416Z,1.20
2018-12-09T11:51:53.826Z,1.20
2018-12-09T11:54:22.262Z,1.10
2018-12-09T11:56:50.675Z,1.00
2018-12-09T11:59:19.112Z,1.30
2018-12-09T12:01:47.532Z,1.60
2018-12-09T12:04:16.419Z,1.00
2018-12-09T12:06:44.860Z,1.13
2018-12-09T12:09:13.313Z,1.40
2018-12-09T12:11:41.762Z,1.10
2018-12-09T12:14:10.163Z,1.40
2018-12-09T12:16:38.624Z,1.40
2018-12-09T12:19:07.044Z,1.30
2018-12-09T12:21:35.484Z,1.47
2018-12-09T12:24:04.026Z,1.23
2018-12-09T12:26:32.521Z,1.63
2018-12-09T12:29:01.015Z,1.43
2018-12-09T12:31:29.461Z,1.40
2018-12-09T12:33:57.912Z,1.60
2018-12-09T12:36:26.447Z,1.40
2018-12-09T12:38:54.823Z,1.70
2018-12-09T12:41:23.276Z,1.67
2018-12-09T12:43:51.919Z,1.47
2018-12-09T12:46:20.378Z,1.93
2018-12-09T12:48:49.062Z,1.47
2018-12-09T12:51:17.503Z,2.00
2018-12-09T12:53:46.304Z,1.83
2018-12-09T12:56:14.722Z,1.90
2018-12-09T12:58:43.125Z,1.37
2018-12-09T13:01:11.550Z,1.97
2018-12-09T13:03:40.131Z,2.20
2018-12-09T13:06:09.087Z,3.60
2018-12-09T13:08:37.619Z,2.23
2018-12-09T13:11:06.076Z,2.23
2018-12-09T13:13:34.544Z,1.53
2018-12-09T13:16:02.987Z,1.40
2018-12-09T13:18:31.545Z,1.87
2018-12-09T13:20:59.962Z,1.57
2018-12-09T13:23:28.437Z,0.80
2018-12-09T13:25:57.002Z,1.27
2018-12-09T13:28:25.442Z,0.80
2018-12-09T13:30:53.873Z,1.10
2018-12-09T13:33:22.466Z,0.97
2018-12-09T13:35:50.966Z,0.80
2018-12-09T13:38:19.384Z,0.73
2018-12-09T13:40:47.791Z,1.10
2018-12-09T13:43:16.205Z,0.80
2018-12-09T13:45:44.843Z,1.00
2018-12-09T13:48:13.422Z,0.77
2018-12-09T13:50:41.887Z,1.10
2018-12-09T13:53:10.328Z,1.17
2018-12-09T13:55:38.738Z,0.90
2018-12-09T13:58:07.158Z,1.10
2018-12-09T14:00:35.585Z,1.63
2018-12-09T14:03:04.000Z,1.50
2018-12-09T14:05:32.458Z,1.83
2018-12-09T14:08:01.132Z,1.73
2018-12-09T14:10:29.560Z,1.50
2018-12-09T14:12:57.997Z,1.50
2018-12-09T14:15:26.471Z,1.30
2018-12-09T14:17:54.875Z,2.00
2018-12-09T14:20:23.302Z,1.40
2018-12-09T14:22:51.704Z,1.50
2018-12-09T14:25:20.175Z,1.20
2018-12-09T14:27:48.560Z,1.70
2018-12-09T14:30:17.104Z,1.60
2018-12-09T14:32:45.521Z,2.10
2018-12-09T14:35:13.975Z,1.93
2018-12-09T14:37:42.410Z,1.40
2018-12-09T14:40:11.313Z,2.40
2018-12-09T14:42:39.725Z,1.90
2018-12-09T14:45:09.562Z,1.90
2018-12-09T14:47:38.020Z,2.37
2018-12-09T14:50:08.599Z,1.63
2018-12-09T14:52:37.190Z,1.90
2018-12-09T14:55:06.086Z,3.03
2018-12-09T14:57:34.618Z,2.47
2018-12-09T15:00:03.278Z,2.10
2018-12-09T15:02:31.701Z,2.33
2018-12-09T15:05:00.128Z,2.50
2018-12-09T15:07:28.547Z,3.10
2018-12-09T15:09:57.402Z,2.70
2018-12-09T15:12:26.276Z,3.10
2018-12-09T15:14:54.681Z,3.07
2018-12-09T15:17:23.234Z,2.60
2018-12-09T15:19:51.672Z,3.17
2018-12-09T15:22:20.125Z,2.70
2018-12-09T15:24:48.564Z,6.20
2018-12-09T15:27:17.011Z,7.27
2018-12-09T15:29:45.412Z,3.70
2018-12-09T15:32:13.820Z,4.80
2018-12-09T15:34:42.244Z,3.93
2018-12-09T15:37:10.672Z,3.00
2018-12-09T15:39:39.093Z,2.70
2018-12-09T15:42:07.514Z,3.00
2018-12-09T15:44:35.941Z,2.73
2018-12-09T15:47:04.393Z,2.97
2018-12-09T15:49:32.876Z,3.33
2018-12-09T15:52:01.311Z,3.13
2018-12-09T15:54:29.951Z,3.07
2018-12-09T15:56:58.371Z,2.57
2018-12-09T15:59:32.143Z,2.20
2018-12-09T16:01:57.231Z,2.47
2018-12-09T16:04:25.665Z,3.50
2018-12-09T16:06:54.049Z,2.60
2018-12-09T16:09:22.495Z,2.87
2018-12-09T16:11:50.945Z,3.00
2018-12-09T16:14:19.373Z,2.83
2018-12-09T16:16:47.864Z,3.27
2018-12-09T16:19:16.268Z,2.90
2018-12-09T16:21:44.694Z,2.40
2018-12-09T16:24:13.139Z,2.57
2018-12-09T16:26:41.583Z,2.97
2018-12-09T16:29:10.024Z,2.60
2018-12-09T16:31:38.625Z,2.10
2018-12-09T16:34:07.089Z,2.77
2018-12-09T16:36:35.519Z,3.50
2018-12-09T16:40:09.997Z,2.70
2018-12-09T16:42:38.423Z,2.73
2018-12-09T16:45:07.105Z,4.80
2018-12-09T16:47:35.848Z,1.93
2018-12-09T16:50:05.618Z,2.20
2018-12-09T16:52:34.056Z,2.30
2018-12-09T16:55:02.472Z,2.80
2018-12-09T16:57:30.905Z,2.80
2018-12-09T16:59:59.340Z,2.20
2018-12-09T17:02:27.766Z,2.80
2018-12-09T17:04:56.247Z,3.40
2018-12-09T17:07:24.682Z,3.33
2018-12-09T17:09:53.093Z,3.10
2018-12-09T17:12:21.524Z,3.00
2018-12-09T17:14:49.978Z,3.47
2018-12-09T17:17:18.400Z,3.50
2018-12-09T17:19:46.882Z,3.20
2018-12-09T17:22:15.339Z,2.80
2018-12-09T17:24:43.777Z,3.10
2018-12-09T17:27:12.180Z,2.83
2018-12-09T17:29:40.691Z,2.83
2018-12-09T17:32:09.127Z,3.03
2018-12-09T17:34:37.564Z,2.27
2018-12-09T17:37:05.983Z,3.57
2018-12-09T17:39:34.392Z,2.73
2018-12-09T17:42:02.871Z,3.27
2018-12-09T17:44:31.315Z,3.93
2018-12-09T17:46:59.883Z,3.50
2018-12-09T17:49:28.383Z,3.63
2018-12-09T17:51:56.799Z,3.30
2018-12-09T17:54:25.258Z,3.17
2018-12-09T17:56:53.693Z,3.30
2018-12-09T17:59:22.128Z,4.30
2018-12-09T18:01:50.553Z,4.20
2018-12-09T18:04:19.004Z,3.10
2018-12-09T18:06:47.432Z,3.57
2018-12-09T18:09:15.867Z,3.10
2018-12-09T18:11:44.292Z,3.83
2018-12-09T18:14:12.696Z,2.90
2018-12-09T18:16:41.134Z,3.47
2018-12-09T18:19:09.556Z,4.10
2018-12-09T18:21:38.014Z,3.30
2018-12-09T18:24:06.572Z,3.30
2018-12-09T18:26:35.009Z,2.67
2018-12-09T18:29:04.332Z,3.27
2018-12-09T18:31:32.998Z,3.20
2018-12-09T18:34:01.597Z,2.97
2018-12-09T18:36:30.034Z,4.60
2018-12-09T18:38:58.584Z,3.90
2018-12-09T18:41:27.055Z,2.77
2018-12-09T18:43:55.493Z,4.03
2018-12-09T18:46:23.999Z,3.67
2018-12-09T18:48:52.790Z,2.80
2018-12-09T18:51:21.256Z,3.40
2018-12-09T18:53:49.689Z,3.73
2018-12-09T18:56:18.124Z,3.23
2018-12-09T18:58:46.536Z,3.43
2018-12-09T19:01:14.963Z,3.43
2018-12-09T19:03:43.388Z,2.43
2018-12-09T19:06:11.835Z,3.10
2018-12-09T19:08:40.387Z,2.93
2018-12-09T19:11:08.834Z,2.63
2018-12-09T19:13:37.264Z,3.07
2018-12-09T19:16:05.736Z,2.93
2018-12-09T19:18:34.175Z,2.80
2018-12-09T19:21:02.587Z,3.13
2018-12-09T19:23:31.021Z,3.30
2018-12-09T19:25:59.410Z,2.43
2018-12-09T19:28:27.844Z,1.80
2018-12-09T19:30:56.252Z,4.23
2018-12-09T19:33:24.673Z,2.60
2018-12-09T19:35:53.076Z,3.00
2018-12-09T19:38:21.483Z,3.20
2018-12-09T19:40:49.908Z,3.57
2018-12-09T19:43:18.353Z,2.87
2018-12-09T19:45:46.778Z,3.60
2018-12-09T19:48:15.215Z,3.60
2018-12-09T19:50:43.667Z,2.93
2018-12-09T19:53:13.023Z,4.57
2018-12-09T19:55:41.471Z,3.30
2018-12-09T19:58:09.906Z,3.97
2018-12-09T20:00:38.336Z,4.00
2018-12-09T20:03:06.937Z,3.87
2018-12-09T20:05:35.379Z,3.70
2018-12-09T20:08:03.851Z,5.03
2018-12-09T20:10:32.401Z,4.00
2018-12-09T20:13:00.854Z,3.50
2018-12-09T20:15:29.362Z,5.20
2018-12-09T20:17:57.833Z,3.43
2018-12-09T20:20:26.250Z,3.97
2018-12-09T20:22:54.676Z,3.70
2018-12-09T20:25:23.632Z,3.40
2018-12-09T20:27:52.200Z,3.07
2018-12-09T20:30:20.987Z,2.00
2018-12-09T20:32:49.435Z,2.90
2018-12-09T20:35:17.859Z,3.30
2018-12-09T20:37:46.288Z,2.80
2018-12-09T20:40:14.720Z,4.97
2018-12-09T20:42:48.161Z,2.90
2018-12-09T20:45:13.593Z,2.60
2018-12-09T20:47:42.823Z,3.50
2018-12-09T20:50:11.217Z,3.20
2018-12-09T20:52:39.654Z,3.13
2018-12-09T20:55:08.363Z,3.83
2018-12-09T20:57:36.790Z,3.90
2018-12-09T21:00:05.690Z,2.60
2018-12-09T21:02:34.192Z,2.50
2018-12-09T21:05:02.660Z,3.70
2018-12-09T21:07:31.233Z,2.67
2018-12-09T21:09:59.772Z,3.27
2018-12-09T21:12:28.204Z,3.83
2018-12-09T21:14:56.645Z,3.20
2018-12-09T21:17:25.072Z,3.07
2018-12-09T21:19:54.083Z,3.93
2018-12-09T21:22:22.788Z,3.57
2018-12-09T21:24:51.246Z,3.50
2018-12-09T21:27:19.663Z,3.93
2018-12-09T21:29:48.087Z,3.77
2018-12-09T21:32:16.516Z,3.93
2018-12-09T21:34:44.956Z,3.13
2018-12-09T21:37:13.386Z,3.00
2018-12-09T21:39:41.811Z,3.20
2018-12-09T21:42:10.274Z,3.27
2018-12-09T21:44:38.712Z,4.03
2018-12-09T21:47:07.441Z,2.50
2018-12-09T21:49:35.911Z,2.83
2018-12-09T21:52:04.380Z,2.80
2018-12-09T21:54:32.827Z,3.40
2018-12-09T21:57:01.255Z,3.47
2018-12-09T21:59:29.683Z,3.00
2018-12-09T22:01:58.140Z,3.10
2018-12-09T22:04:26.595Z,3.10
2018-12-09T22:06:55.035Z,3.70
2018-12-09T22:09:23.461Z,3.10
2018-12-09T22:11:51.937Z,2.90
2018-12-09T22:14:20.348Z,3.57
2018-12-09T22:16:48.791Z,3.20
2018-12-09T22:19:17.199Z,3.33
2018-12-09T22:21:45.647Z,4.30
2018-12-09T22:24:14.074Z,3.07
2018-12-09T22:26:42.484Z,3.30
2018-12-09T22:29:10.929Z,2.83
2018-12-09T22:31:39.343Z,3.00
2018-12-09T22:34:07.887Z,2.87
2018-12-09T22:36:36.263Z,3.53
2018-12-09T22:39:07.014Z,2.73
2018-12-09T22:41:35.422Z,4.70
2018-12-09T22:44:04.196Z,2.90
2018-12-09T22:46:32.625Z,3.03
2018-12-09T22:49:01.086Z,2.83
2018-12-09T22:51:29.503Z,4.50
2018-12-09T22:53:57.910Z,2.67
2018-12-09T22:56:26.383Z,2.83
2018-12-09T22:58:54.942Z,3.20
2018-12-09T23:01:23.589Z,2.63
2018-12-09T23:03:52.364Z,3.00
2018-12-09T23:06:20.826Z,3.20
2018-12-09T23:08:49.292Z,3.33
2018-12-09T23:11:17.683Z,3.20
2018-12-09T23:13:46.140Z,3.40
2018-12-09T23:16:14.576Z,4.00
2018-12-09T23:18:42.993Z,3.43
2018-12-09T23:21:11.402Z,4.00
2018-12-09T23:23:39.841Z,2.97
2018-12-09T23:26:08.403Z,3.50
2018-12-09T23:28:36.809Z,3.83
2018-12-09T23:31:05.235Z,4.80
2018-12-09T23:33:33.692Z,3.53
2018-12-09T23:36:02.136Z,5.70
2018-12-09T23:38:30.542Z,3.20
2018-12-09T23:40:58.993Z,3.27
2018-12-09T23:43:27.492Z,4.13
2018-12-09T23:45:55.934Z,3.37
2018-12-09T23:48:24.343Z,3.63
2018-12-09T23:50:52.763Z,4.17
2018-12-09T23:53:21.236Z,5.10
2018-12-09T23:55:49.668Z,3.60
2018-12-09T23:58:18.099Z,3.27
